PWSweather.com
Personal Weather Stations
Station Observations
TENMILE2
Watts Bar Lake, Ten Mile, TN 37880

Watts Bar LakeTen Mile, TN 37880

Lat: 35.686, Lon: -84.7068

Elevation: 767

Station Type: Davis VP2

http://www.wattsbarweather.net

High Low Average
Temperature 69.3°F20.7°C 35.5°F1.9°C 51.1°F10.6°C
Dew Point 38.8°F3.8°C 26.4°F-3.1°C 32.6°F0.3°C
Winds 5.6 mph 9.0 kmh Calm Calm 1.0 mph SE1.6 kmh SE
Wind Gusts 10.0 mph16.1 kmh -- 3.0 mph4.8 kmh
Humidity 87% 21% 55%
Pressure 30.21 in1023.0 mb 30.06 in1017.9 mb -
Precipitation 0.00 in0.0 mm - -
Hour Temp Dew Point Humidity Winds Wind Gusts Pressure Precip Precip Rate Daily Precip Total
12:03 AM 40.1°F4.5°C 31.5°F-0.3°C 71% 1.3 mph NE2.1 kmh NE 1.3 mph2.1 kmh 30.13 in1020.3 mb 0.00 in0.0 mm 0.00 in0.0 mm 0.00 in0.0 mm
12:08 AM 40.0°F4.4°C 32.4°F0.2°C 74% 1.3 mph NE2.1 kmh NE 1.3 mph2.1 kmh 30.13 in1020.3 mb 0.00 in0.0 mm 0.00 in0.0 mm 0.00 in0.0 mm
12:13 AM 40.2°F4.6°C 33.3°F0.7°C 76% Calm Calm 1.3 mph2.1 kmh 30.13 in1020.3 mb 0.00 in0.0 mm 0.00 in0.0 mm 0.00 in0.0 mm
12:19 AM 40.1°F4.5°C 32.9°F0.5°C 75% 1.3 mph NE2.1 kmh NE 1.3 mph2.1 kmh 30.13 in1020.3 mb 0.00 in0.0 mm 0.00 in0.0 mm 0.00 in0.0 mm
12:24 AM 40.0°F4.4°C 32.8°F0.4°C 75% Calm Calm 1.3 mph2.1 kmh 30.13 in1020.3 mb 0.00 in0.0 mm 0.00 in0.0 mm 0.00 in0.0 mm
12:29 AM 40.1°F4.5°C 32.9°F0.5°C 75% 1.3 mph ENE2.1 kmh ENE 1.3 mph2.1 kmh 30.12 in1020.0 mb 0.00 in0.0 mm 0.00 in0.0 mm 0.00 in0.0 mm
12:34 AM 40.1°F4.5°C 32.5°F0.3°C 74% Calm Calm 1.3 mph2.1 kmh 30.12 in1020.0 mb 0.00 in0.0 mm 0.00 in0.0 mm 0.00 in0.0 mm
12:39 AM 40.0°F4.4°C 32.8°F0.4°C 75% 1.3 mph ENE2.1 kmh ENE 1.3 mph2.1 kmh 30.12 in1020.0 mb 0.00 in0.0 mm 0.00 in0.0 mm 0.00 in0.0 mm
12:44 AM 40.0°F4.4°C 31.8°F-0.1°C 72% 1.3 mph E2.1 kmh E 1.3 mph2.1 kmh 30.12 in1020.0 mb 0.00 in0.0 mm 0.00 in0.0 mm 0.00 in0.0 mm
12:49 AM 39.7°F4.3°C 32.5°F0.3°C 75% 1.3 mph E2.1 kmh E 1.3 mph2.1 kmh 30.12 in1020.0 mb 0.00 in0.0 mm 0.00 in0.0 mm 0.00 in0.0 mm
12:54 AM 39.4°F4.1°C 31.9°F-0.1°C 74% Calm Calm 1.3 mph2.1 kmh 30.12 in1020.0 mb 0.00 in0.0 mm 0.00 in0.0 mm 0.00 in0.0 mm
12:59 AM 39.3°F4.1°C 32.7°F0.4°C 77% Calm Calm 1.3 mph2.1 kmh 30.12 in1020.0 mb 0.00 in0.0 mm 0.00 in0.0 mm 0.00 in0.0 mm
01:04 AM 39.1°F3.9°C 32.5°F0.3°C 77% 1.3 mph E2.1 kmh E 1.3 mph2.1 kmh 30.12 in1020.0 mb 0.00 in0.0 mm 0.00 in0.0 mm 0.00 in0.0 mm
01:09 AM 39.0°F3.9°C 32.1°F0.1°C 76% Calm Calm 1.3 mph2.1 kmh 30.12 in1020.0 mb 0.00 in0.0 mm 0.00 in0.0 mm 0.00 in0.0 mm
01:14 AM 38.8°F3.8°C 32.2°F0.1°C 77% Calm Calm 1.0 mph1.6 kmh 30.13 in1020.3 mb 0.00 in0.0 mm 0.00 in0.0 mm 0.00 in0.0 mm
01:19 AM 38.7°F3.7°C 32.1°F0.1°C 77% Calm Calm 1.0 mph1.6 kmh 30.13 in1020.3 mb 0.00 in0.0 mm 0.00 in0.0 mm 0.00 in0.0 mm
01:25 AM 38.5°F3.6°C 31.6°F-0.2°C 76% 1.3 mph E2.1 kmh E 1.3 mph2.1 kmh 30.13 in1020.3 mb 0.00 in0.0 mm 0.00 in0.0 mm 0.00 in0.0 mm
01:30 AM 38.5°F3.6°C 32.3°F0.2°C 78% Calm Calm 1.3 mph2.1 kmh 30.13 in1020.3 mb 0.00 in0.0 mm 0.00 in0.0 mm 0.00 in0.0 mm
01:35 AM 38.5°F3.6°C 32.0°F0.0°C 77% Calm Calm 1.3 mph2.1 kmh 30.13 in1020.3 mb 0.00 in0.0 mm 0.00 in0.0 mm 0.00 in0.0 mm
01:40 AM 38.4°F3.6°C 32.2°F0.1°C 78% Calm Calm 1.3 mph2.1 kmh 30.13 in1020.3 mb 0.00 in0.0 mm 0.00 in0.0 mm 0.00 in0.0 mm
01:45 AM 38.3°F3.5°C 31.8°F-0.1°C 77% 1.3 mph E2.1 kmh E 1.3 mph2.1 kmh 30.13 in1020.3 mb 0.00 in0.0 mm 0.00 in0.0 mm 0.00 in0.0 mm
01:50 AM 38.1°F3.4°C 31.9°F-0.1°C 78% Calm Calm 1.3 mph2.1 kmh 30.13 in1020.3 mb 0.00 in0.0 mm 0.00 in0.0 mm 0.00 in0.0 mm
01:55 AM 38.1°F3.4°C 31.9°F-0.1°C 78% Calm Calm 1.3 mph2.1 kmh 30.13 in1020.3 mb 0.00 in0.0 mm 0.00 in0.0 mm 0.00 in0.0 mm
02:00 AM 38.1°F3.4°C 31.9°F-0.1°C 78% Calm Calm 1.3 mph2.1 kmh 30.13 in1020.3 mb 0.00 in0.0 mm 0.00 in0.0 mm 0.00 in0.0 mm
02:05 AM 38.3°F3.5°C 31.8°F-0.1°C 77% 1.3 mph E2.1 kmh E 1.3 mph2.1 kmh 30.13 in1020.3 mb 0.00 in0.0 mm 0.00 in0.0 mm 0.00 in0.0 mm
02:10 AM 38.4°F3.6°C 31.5°F-0.3°C 76% 1.3 mph E2.1 kmh E 1.3 mph2.1 kmh 30.13 in1020.3 mb 0.00 in0.0 mm 0.00 in0.0 mm 0.00 in0.0 mm
02:15 AM 38.6°F3.7°C 31.7°F-0.2°C 76% 1.3 mph E2.1 kmh E 1.3 mph2.1 kmh 30.13 in1020.3 mb 0.00 in0.0 mm 0.00 in0.0 mm 0.00 in0.0 mm
02:20 AM 38.5°F3.6°C 31.9°F-0.1°C 77% 1.3 mph E2.1 kmh E 1.3 mph2.1 kmh 30.12 in1020.0 mb 0.00 in0.0 mm 0.00 in0.0 mm 0.00 in0.0 mm
02:25 AM 38.7°F3.7°C 32.1°F0.1°C 77% Calm Calm 1.3 mph2.1 kmh 30.12 in1020.0 mb 0.00 in0.0 mm 0.00 in0.0 mm 0.00 in0.0 mm
02:30 AM 38.7°F3.7°C 32.1°F0.1°C 77% 1.3 mph E2.1 kmh E 1.3 mph2.1 kmh 30.12 in1020.0 mb 0.00 in0.0 mm 0.00 in0.0 mm 0.00 in0.0 mm
02:35 AM 38.5°F3.6°C 31.6°F-0.2°C 76% 1.3 mph E2.1 kmh E 1.3 mph2.1 kmh 30.12 in1020.0 mb 0.00 in0.0 mm 0.00 in0.0 mm 0.00 in0.0 mm
02:40 AM 38.5°F3.6°C 32.0°F0.0°C 77% 1.3 mph E2.1 kmh E 1.3 mph2.1 kmh 30.12 in1020.0 mb 0.00 in0.0 mm 0.00 in0.0 mm 0.00 in0.0 mm
02:45 AM 38.4°F3.6°C 32.1°F0.1°C 78% Calm Calm 1.3 mph2.1 kmh 30.13 in1020.3 mb 0.00 in0.0 mm 0.00 in0.0 mm 0.00 in0.0 mm
02:50 AM 38.3°F3.5°C 31.4°F-0.3°C 76% 1.3 mph E2.1 kmh E 1.3 mph2.1 kmh 30.12 in1020.0 mb 0.00 in0.0 mm 0.00 in0.0 mm 0.00 in0.0 mm
02:55 AM 38.4°F3.6°C 31.9°F-0.1°C 77% 1.3 mph E2.1 kmh E 1.3 mph2.1 kmh 30.13 in1020.3 mb 0.00 in0.0 mm 0.00 in0.0 mm 0.00 in0.0 mm
03:00 AM 38.4°F3.6°C 31.9°F-0.1°C 77% 1.3 mph E2.1 kmh E 1.3 mph2.1 kmh 30.13 in1020.3 mb 0.00 in0.0 mm 0.00 in0.0 mm 0.00 in0.0 mm
03:05 AM 38.3°F3.5°C 31.8°F-0.1°C 77% Calm Calm 1.3 mph2.1 kmh 30.13 in1020.3 mb 0.00 in0.0 mm 0.00 in0.0 mm 0.00 in0.0 mm
03:10 AM 38.1°F3.4°C 31.9°F-0.1°C 78% 1.3 mph E2.1 kmh E 1.3 mph2.1 kmh 30.13 in1020.3 mb 0.00 in0.0 mm 0.00 in0.0 mm 0.00 in0.0 mm
03:15 AM 37.8°F3.2°C 31.9°F-0.1°C 79% Calm Calm 1.3 mph2.1 kmh 30.13 in1020.3 mb 0.00 in0.0 mm 0.00 in0.0 mm 0.00 in0.0 mm
03:20 AM 37.5°F3.1°C 32.2°F0.1°C 81% Calm Calm 1.0 mph1.6 kmh 30.13 in1020.3 mb 0.00 in0.0 mm 0.00 in0.0 mm 0.00 in0.0 mm
03:26 AM 37.2°F2.9°C 31.9°F-0.1°C 81% Calm Calm 1.0 mph1.6 kmh 30.13 in1020.3 mb 0.00 in0.0 mm 0.00 in0.0 mm 0.00 in0.0 mm
03:31 AM 37.1°F2.8°C 31.8°F-0.1°C 81% Calm Calm -- 30.13 in1020.3 mb 0.00 in0.0 mm 0.00 in0.0 mm 0.00 in0.0 mm
03:36 AM 36.9°F2.7°C 31.6°F-0.2°C 81% Calm Calm -- 30.13 in1020.3 mb 0.00 in0.0 mm 0.00 in0.0 mm 0.00 in0.0 mm
03:41 AM 36.8°F2.7°C 31.8°F-0.1°C 82% Calm Calm -- 30.13 in1020.3 mb 0.00 in0.0 mm 0.00 in0.0 mm 0.00 in0.0 mm
03:46 AM 36.7°F2.6°C 32.0°F0.0°C 83% 1.3 mph E2.1 kmh E 1.3 mph2.1 kmh 30.13 in1020.3 mb 0.00 in0.0 mm 0.00 in0.0 mm 0.00 in0.0 mm
03:51 AM 36.7°F2.6°C 32.0°F0.0°C 83% Calm Calm 1.3 mph2.1 kmh 30.13 in1020.3 mb 0.00 in0.0 mm 0.00 in0.0 mm 0.00 in0.0 mm
03:56 AM 36.7°F2.6°C 32.0°F0.0°C 83% 1.3 mph E2.1 kmh E 1.3 mph2.1 kmh 30.13 in1020.3 mb 0.00 in0.0 mm 0.00 in0.0 mm 0.00 in0.0 mm
04:01 AM 36.6°F2.6°C 31.9°F-0.1°C 83% Calm Calm 1.3 mph2.1 kmh 30.13 in1020.3 mb 0.00 in0.0 mm 0.00 in0.0 mm 0.00 in0.0 mm
04:06 AM 36.4°F2.4°C 31.7°F-0.2°C 83% 1.3 mph E2.1 kmh E 1.3 mph2.1 kmh 30.13 in1020.3 mb 0.00 in0.0 mm 0.00 in0.0 mm 0.00 in0.0 mm
04:11 AM 36.4°F2.4°C 32.0°F0.0°C 84% 1.3 mph E2.1 kmh E 1.3 mph2.1 kmh 30.13 in1020.3 mb 0.00 in0.0 mm 0.00 in0.0 mm 0.00 in0.0 mm
04:16 AM 36.4°F2.4°C 31.7°F-0.2°C 83% Calm Calm 1.3 mph2.1 kmh 30.13 in1020.3 mb 0.00 in0.0 mm 0.00 in0.0 mm 0.00 in0.0 mm
04:21 AM 36.7°F2.6°C 31.7°F-0.2°C 82% 1.5 mph E2.4 kmh E 2.5 mph4.0 kmh 30.13 in1020.3 mb 0.00 in0.0 mm 0.00 in0.0 mm 0.00 in0.0 mm
04:26 AM 37.0°F2.8°C 31.7°F-0.2°C 81% 1.3 mph E2.1 kmh E 2.5 mph4.0 kmh 30.13 in1020.3 mb 0.00 in0.0 mm 0.00 in0.0 mm 0.00 in0.0 mm
04:31 AM 37.4°F3.0°C 31.5°F-0.3°C 79% 1.3 mph E2.1 kmh E 2.5 mph4.0 kmh 30.13 in1020.3 mb 0.00 in0.0 mm 0.00 in0.0 mm 0.00 in0.0 mm
04:36 AM 37.6°F3.1°C 32.0°F0.0°C 80% Calm Calm 2.5 mph4.0 kmh 30.14 in1020.7 mb 0.00 in0.0 mm 0.00 in0.0 mm 0.00 in0.0 mm
04:41 AM 37.3°F2.9°C 31.7°F-0.2°C 80% 1.3 mph E2.1 kmh E 2.0 mph3.2 kmh 30.14 in1020.7 mb 0.00 in0.0 mm 0.00 in0.0 mm 0.00 in0.0 mm
04:46 AM 37.2°F2.9°C 31.6°F-0.2°C 80% 2.1 mph ENE3.4 kmh ENE 2.5 mph4.0 kmh 30.14 in1020.7 mb 0.00 in0.0 mm 0.00 in0.0 mm 0.00 in0.0 mm
04:51 AM 37.0°F2.8°C 31.7°F-0.2°C 81% 1.3 mph E2.1 kmh E 2.5 mph4.0 kmh 30.14 in1020.7 mb 0.00 in0.0 mm 0.00 in0.0 mm 0.00 in0.0 mm
04:56 AM 36.8°F2.7°C 31.5°F-0.3°C 81% 1.3 mph E2.1 kmh E 2.5 mph4.0 kmh 30.14 in1020.7 mb 0.00 in0.0 mm 0.00 in0.0 mm 0.00 in0.0 mm
05:01 AM 36.6°F2.6°C 31.9°F-0.1°C 83% Calm Calm 2.5 mph4.0 kmh 30.14 in1020.7 mb 0.00 in0.0 mm 0.00 in0.0 mm 0.00 in0.0 mm
05:06 AM 36.4°F2.4°C 32.0°F0.0°C 84% 1.3 mph E2.1 kmh E 2.5 mph4.0 kmh 30.14 in1020.7 mb 0.00 in0.0 mm 0.00 in0.0 mm 0.00 in0.0 mm
05:11 AM 36.2°F2.3°C 31.5°F-0.3°C 83% Calm Calm 1.3 mph2.1 kmh 30.14 in1020.7 mb 0.00 in0.0 mm 0.00 in0.0 mm 0.00 in0.0 mm
05:16 AM 36.1°F2.3°C 31.7°F-0.2°C 84% Calm Calm 1.3 mph2.1 kmh 30.15 in1021.0 mb 0.00 in0.0 mm 0.00 in0.0 mm 0.00 in0.0 mm
05:21 AM 35.9°F2.2°C 31.5°F-0.3°C 84% Calm Calm 1.3 mph2.1 kmh 30.15 in1021.0 mb 0.00 in0.0 mm 0.00 in0.0 mm 0.00 in0.0 mm
05:26 AM 35.7°F2.1°C 31.6°F-0.2°C 85% Calm Calm 1.3 mph2.1 kmh 30.15 in1021.0 mb 0.00 in0.0 mm 0.00 in0.0 mm 0.00 in0.0 mm
05:31 AM 35.7°F2.1°C 31.3°F-0.4°C 84% Calm Calm 1.0 mph1.6 kmh 30.15 in1021.0 mb 0.00 in0.0 mm 0.00 in0.0 mm 0.00 in0.0 mm
05:36 AM 35.7°F2.1°C 31.3°F-0.4°C 84% Calm Calm 1.3 mph2.1 kmh 30.15 in1021.0 mb 0.00 in0.0 mm 0.00 in0.0 mm 0.00 in0.0 mm
05:41 AM 35.6°F2.0°C 31.2°F-0.4°C 84% Calm Calm 1.3 mph2.1 kmh 30.16 in1021.3 mb 0.00 in0.0 mm 0.00 in0.0 mm 0.00 in0.0 mm
05:46 AM 35.5°F1.9°C 31.4°F-0.3°C 85% Calm Calm 1.0 mph1.6 kmh 30.16 in1021.3 mb 0.00 in0.0 mm 0.00 in0.0 mm 0.00 in0.0 mm
05:51 AM 35.5°F1.9°C 31.7°F-0.2°C 86% Calm Calm 1.0 mph1.6 kmh 30.16 in1021.3 mb 0.00 in0.0 mm 0.00 in0.0 mm 0.00 in0.0 mm
05:56 AM 35.5°F1.9°C 32.0°F0.0°C 87% Calm Calm 1.0 mph1.6 kmh 30.16 in1021.3 mb 0.00 in0.0 mm 0.00 in0.0 mm 0.00 in0.0 mm
06:01 AM 35.6°F2.0°C 31.8°F-0.1°C 86% Calm Calm -- 30.16 in1021.3 mb 0.00 in0.0 mm 0.00 in0.0 mm 0.00 in0.0 mm
06:06 AM 35.6°F2.0°C 31.8°F-0.1°C 86% Calm Calm -- 30.16 in1021.3 mb 0.00 in0.0 mm 0.00 in0.0 mm 0.00 in0.0 mm
06:11 AM 35.8°F2.1°C 32.0°F0.0°C 86% Calm Calm -- 30.16 in1021.3 mb 0.00 in0.0 mm 0.00 in0.0 mm 0.00 in0.0 mm
06:16 AM 35.8°F2.1°C 32.0°F0.0°C 86% Calm Calm -- 30.16 in1021.3 mb 0.00 in0.0 mm 0.00 in0.0 mm 0.00 in0.0 mm
06:21 AM 35.8°F2.1°C 32.0°F0.0°C 86% Calm Calm -- 30.16 in1021.3 mb 0.00 in0.0 mm 0.00 in0.0 mm 0.00 in0.0 mm
06:26 AM 35.9°F2.2°C 32.4°F0.2°C 87% Calm Calm -- 30.16 in1021.3 mb 0.00 in0.0 mm 0.00 in0.0 mm 0.00 in0.0 mm
06:31 AM 35.8°F2.1°C 32.0°F0.0°C 86% Calm Calm -- 30.16 in1021.3 mb 0.00 in0.0 mm 0.00 in0.0 mm 0.00 in0.0 mm
06:36 AM 35.9°F2.2°C 32.1°F0.1°C 86% Calm Calm -- 30.16 in1021.3 mb 0.00 in0.0 mm 0.00 in0.0 mm 0.00 in0.0 mm
06:41 AM 35.8°F2.1°C 31.7°F-0.2°C 85% Calm Calm -- 30.17 in1021.7 mb 0.00 in0.0 mm 0.00 in0.0 mm 0.00 in0.0 mm
06:46 AM 35.8°F2.1°C 31.7°F-0.2°C 85% Calm Calm -- 30.17 in1021.7 mb 0.00 in0.0 mm 0.00 in0.0 mm 0.00 in0.0 mm
06:51 AM 36.0°F2.2°C 31.9°F-0.1°C 85% Calm Calm 1.3 mph2.1 kmh 30.17 in1021.7 mb 0.00 in0.0 mm 0.00 in0.0 mm 0.00 in0.0 mm
06:56 AM 36.1°F2.3°C 32.0°F0.0°C 85% 1.3 mph E2.1 kmh E 1.3 mph2.1 kmh 30.17 in1021.7 mb 0.00 in0.0 mm 0.00 in0.0 mm 0.00 in0.0 mm
07:01 AM 36.2°F2.3°C 32.1°F0.1°C 85% 1.3 mph ENE2.1 kmh ENE 1.3 mph2.1 kmh 30.17 in1021.7 mb 0.00 in0.0 mm 0.00 in0.0 mm 0.00 in0.0 mm
07:06 AM 36.4°F2.4°C 32.0°F0.0°C 84% 1.3 mph E2.1 kmh E 1.3 mph2.1 kmh 30.18 in1022.0 mb 0.00 in0.0 mm 0.00 in0.0 mm 0.00 in0.0 mm
07:11 AM 36.4°F2.4°C 32.3°F0.2°C 85% 1.3 mph E2.1 kmh E 1.3 mph2.1 kmh 30.18 in1022.0 mb 0.00 in0.0 mm 0.00 in0.0 mm 0.00 in0.0 mm
07:16 AM 36.2°F2.3°C 31.8°F-0.1°C 84% Calm Calm 1.3 mph2.1 kmh 30.18 in1022.0 mb 0.00 in0.0 mm 0.00 in0.0 mm 0.00 in0.0 mm
07:21 AM 36.1°F2.3°C 31.7°F-0.2°C 84% Calm Calm 1.3 mph2.1 kmh 30.18 in1022.0 mb 0.00 in0.0 mm 0.00 in0.0 mm 0.00 in0.0 mm
07:26 AM 36.0°F2.2°C 31.6°F-0.2°C 84% Calm Calm 1.3 mph2.1 kmh 30.18 in1022.0 mb 0.00 in0.0 mm 0.00 in0.0 mm 0.00 in0.0 mm
07:31 AM 35.9°F2.2°C 31.5°F-0.3°C 84% Calm Calm 1.3 mph2.1 kmh 30.19 in1022.4 mb 0.00 in0.0 mm 0.00 in0.0 mm 0.00 in0.0 mm
07:36 AM 35.8°F2.1°C 31.7°F-0.2°C 85% Calm Calm 1.3 mph2.1 kmh 30.19 in1022.4 mb 0.00 in0.0 mm 0.00 in0.0 mm 0.00 in0.0 mm
07:42 AM 35.9°F2.2°C 31.8°F-0.1°C 85% Calm Calm 1.3 mph2.1 kmh 30.19 in1022.4 mb 0.00 in0.0 mm 0.00 in0.0 mm 0.00 in0.0 mm
07:47 AM 35.9°F2.2°C 31.8°F-0.1°C 85% Calm Calm 1.3 mph2.1 kmh 30.19 in1022.4 mb 0.00 in0.0 mm 0.00 in0.0 mm 0.00 in0.0 mm
07:52 AM 35.8°F2.1°C 31.7°F-0.2°C 85% Calm Calm 1.3 mph2.1 kmh 30.19 in1022.4 mb 0.00 in0.0 mm 0.00 in0.0 mm 0.00 in0.0 mm
07:57 AM 35.9°F2.2°C 31.8°F-0.1°C 85% Calm Calm 1.0 mph1.6 kmh 30.19 in1022.4 mb 0.00 in0.0 mm 0.00 in0.0 mm 0.00 in0.0 mm
08:02 AM 35.9°F2.2°C 32.1°F0.1°C 86% Calm Calm -- 30.19 in1022.4 mb 0.00 in0.0 mm 0.00 in0.0 mm 0.00 in0.0 mm
08:07 AM 36.3°F2.4°C 32.5°F0.3°C 86% Calm Calm -- 30.20 in1022.7 mb 0.00 in0.0 mm 0.00 in0.0 mm 0.00 in0.0 mm
08:12 AM 36.5°F2.5°C 32.7°F0.4°C 86% Calm Calm -- 30.20 in1022.7 mb 0.00 in0.0 mm 0.00 in0.0 mm 0.00 in0.0 mm
08:17 AM 37.1°F2.8°C 33.3°F0.7°C 86% 1.3 mph E2.1 kmh E 1.3 mph2.1 kmh 30.20 in1022.7 mb 0.00 in0.0 mm 0.00 in0.0 mm 0.00 in0.0 mm
08:22 AM 38.2°F3.4°C 34.4°F1.3°C 86% Calm Calm 1.3 mph2.1 kmh 30.20 in1022.7 mb 0.00 in0.0 mm 0.00 in0.0 mm 0.00 in0.0 mm
08:27 AM 39.0°F3.9°C 34.9°F1.6°C 85% Calm Calm 1.3 mph2.1 kmh 30.20 in1022.7 mb 0.00 in0.0 mm 0.00 in0.0 mm 0.00 in0.0 mm
08:32 AM 39.2°F4.0°C 34.8°F1.6°C 84% Calm Calm 1.0 mph1.6 kmh 30.20 in1022.7 mb 0.00 in0.0 mm 0.00 in0.0 mm 0.00 in0.0 mm
08:37 AM 39.4°F4.1°C 35.2°F1.8°C 85% Calm Calm 1.0 mph1.6 kmh 30.20 in1022.7 mb 0.00 in0.0 mm 0.00 in0.0 mm 0.00 in0.0 mm
08:42 AM 40.0°F4.4°C 35.8°F2.1°C 85% Calm Calm -- 30.20 in1022.7 mb 0.00 in0.0 mm 0.00 in0.0 mm 0.00 in0.0 mm
08:47 AM 40.8°F4.9°C 36.6°F2.6°C 85% Calm Calm -- 30.20 in1022.7 mb 0.00 in0.0 mm 0.00 in0.0 mm 0.00 in0.0 mm
08:52 AM 41.8°F5.4°C 37.3°F2.9°C 84% Calm Calm -- 30.20 in1022.7 mb 0.00 in0.0 mm 0.00 in0.0 mm 0.00 in0.0 mm
08:57 AM 43.6°F6.4°C 38.8°F3.8°C 83% Calm Calm -- 30.21 in1023.0 mb 0.00 in0.0 mm 0.00 in0.0 mm 0.00 in0.0 mm
09:02 AM 45.6°F7.6°C 36.1°F2.3°C 69% 1.3 mph N2.1 kmh N 1.3 mph2.1 kmh 30.21 in1023.0 mb 0.00 in0.0 mm 0.00 in0.0 mm 0.00 in0.0 mm
09:07 AM 46.9°F8.3°C 37.0°F2.8°C 68% 1.3 mph NNE2.1 kmh NNE 1.3 mph2.1 kmh 30.21 in1023.0 mb 0.00 in0.0 mm 0.00 in0.0 mm 0.00 in0.0 mm
09:12 AM 48.1°F8.9°C 38.1°F3.4°C 68% 2.0 mph N3.2 kmh N 2.5 mph4.0 kmh 30.21 in1023.0 mb 0.00 in0.0 mm 0.00 in0.0 mm 0.00 in0.0 mm
09:17 AM 48.2°F9.0°C 37.5°F3.1°C 66% 2.3 mph N3.7 kmh N 3.8 mph6.1 kmh 30.21 in1023.0 mb 0.00 in0.0 mm 0.00 in0.0 mm 0.00 in0.0 mm
09:22 AM 47.7°F8.7°C 37.0°F2.8°C 66% 1.3 mph NNW2.1 kmh NNW 3.8 mph6.1 kmh 30.21 in1023.0 mb 0.00 in0.0 mm 0.00 in0.0 mm 0.00 in0.0 mm
09:27 AM 48.2°F9.0°C 37.1°F2.8°C 65% 2.0 mph N3.2 kmh N 5.0 mph8.0 kmh 30.21 in1023.0 mb 0.00 in0.0 mm 0.00 in0.0 mm 0.00 in0.0 mm
09:32 AM 48.7°F9.3°C 37.5°F3.1°C 65% 1.6 mph N2.6 kmh N 5.0 mph8.0 kmh 30.21 in1023.0 mb 0.00 in0.0 mm 0.00 in0.0 mm 0.00 in0.0 mm
09:37 AM 49.5°F9.7°C 37.0°F2.8°C 62% 2.1 mph NW3.4 kmh NW 5.0 mph8.0 kmh 30.21 in1023.0 mb 0.00 in0.0 mm 0.00 in0.0 mm 0.00 in0.0 mm
09:42 AM 50.1°F10.1°C 35.9°F2.2°C 58% 1.4 mph NNE2.3 kmh NNE 5.0 mph8.0 kmh 30.21 in1023.0 mb 0.00 in0.0 mm 0.00 in0.0 mm 0.00 in0.0 mm
09:47 AM 50.5°F10.3°C 36.7°F2.6°C 59% 2.1 mph NW3.4 kmh NW 6.3 mph10.1 kmh 30.21 in1023.0 mb 0.00 in0.0 mm 0.00 in0.0 mm 0.00 in0.0 mm
09:52 AM 51.4°F10.8°C 36.7°F2.6°C 57% 1.8 mph NNE2.9 kmh NNE 6.3 mph10.1 kmh 30.21 in1023.0 mb 0.00 in0.0 mm 0.00 in0.0 mm 0.00 in0.0 mm
09:57 AM 52.1°F11.2°C 34.0°F1.1°C 50% 1.3 mph NNW2.1 kmh NNW 5.0 mph8.0 kmh 30.21 in1023.0 mb 0.00 in0.0 mm 0.00 in0.0 mm 0.00 in0.0 mm
10:02 AM 52.8°F11.6°C 35.2°F1.8°C 51% 1.5 mph N2.4 kmh N 5.0 mph8.0 kmh 30.21 in1023.0 mb 0.00 in0.0 mm 0.00 in0.0 mm 0.00 in0.0 mm
10:07 AM 53.5°F11.9°C 34.8°F1.6°C 49% 1.3 mph ENE2.1 kmh ENE 3.8 mph6.1 kmh 30.21 in1023.0 mb 0.00 in0.0 mm 0.00 in0.0 mm 0.00 in0.0 mm
10:12 AM 54.2°F12.3°C 34.4°F1.3°C 47% 1.4 mph E2.3 kmh E 6.3 mph10.1 kmh 30.21 in1023.0 mb 0.00 in0.0 mm 0.00 in0.0 mm 0.00 in0.0 mm
10:17 AM 54.2°F12.3°C 30.2°F-1.0°C 40% 2.7 mph N4.3 kmh N 7.5 mph12.1 kmh 30.21 in1023.0 mb 0.00 in0.0 mm 0.00 in0.0 mm 0.00 in0.0 mm
10:22 AM 54.1°F12.3°C 30.7°F-0.7°C 41% 4.6 mph NNW7.4 kmh NNW 8.8 mph14.2 kmh 30.21 in1023.0 mb 0.00 in0.0 mm 0.00 in0.0 mm 0.00 in0.0 mm
10:27 AM 54.6°F12.6°C 30.6°F-0.8°C 40% 3.2 mph N5.1 kmh N 8.8 mph14.2 kmh 30.21 in1023.0 mb 0.00 in0.0 mm 0.00 in0.0 mm 0.00 in0.0 mm
10:32 AM 54.6°F12.6°C 29.5°F-1.4°C 38% 5.2 mph N8.4 kmh N 10.0 mph16.1 kmh 30.21 in1023.0 mb 0.00 in0.0 mm 0.00 in0.0 mm 0.00 in0.0 mm
10:37 AM 54.6°F12.6°C 31.3°F-0.4°C 41% 2.9 mph NW4.7 kmh NW 10.0 mph16.1 kmh 30.20 in1022.7 mb 0.00 in0.0 mm 0.00 in0.0 mm 0.00 in0.0 mm
10:42 AM 54.9°F12.7°C 27.7°F-2.4°C 35% 3.2 mph ENE5.1 kmh ENE 9.0 mph14.5 kmh 30.20 in1022.7 mb 0.00 in0.0 mm 0.00 in0.0 mm 0.00 in0.0 mm
10:47 AM 54.9°F12.7°C 28.4°F-2.0°C 36% 3.0 mph NW4.8 kmh NW 10.0 mph16.1 kmh 30.20 in1022.7 mb 0.00 in0.0 mm 0.00 in0.0 mm 0.00 in0.0 mm
10:52 AM 55.3°F12.9°C 28.8°F-1.8°C 36% 2.4 mph N3.9 kmh N 10.0 mph16.1 kmh 30.21 in1023.0 mb 0.00 in0.0 mm 0.00 in0.0 mm 0.00 in0.0 mm
10:57 AM 55.5°F13.1°C 30.1°F-1.1°C 38% 3.0 mph ENE4.8 kmh ENE 8.0 mph12.9 kmh 30.21 in1023.0 mb 0.00 in0.0 mm 0.00 in0.0 mm 0.00 in0.0 mm
11:02 AM 56.2°F13.4°C 28.9°F-1.7°C 35% 5.4 mph NNW8.7 kmh NNW 10.0 mph16.1 kmh 30.20 in1022.7 mb 0.00 in0.0 mm 0.00 in0.0 mm 0.00 in0.0 mm
11:07 AM 55.7°F13.2°C 28.9°F-1.7°C 36% 3.9 mph N6.3 kmh N 10.0 mph16.1 kmh 30.20 in1022.7 mb 0.00 in0.0 mm 0.00 in0.0 mm 0.00 in0.0 mm
11:12 AM 55.8°F13.2°C 29.0°F-1.7°C 36% 1.7 mph W2.7 kmh W 8.0 mph12.9 kmh 30.21 in1023.0 mb 0.00 in0.0 mm 0.00 in0.0 mm 0.00 in0.0 mm
11:17 AM 56.3°F13.5°C 30.8°F-0.7°C 38% 2.5 mph NE4.0 kmh NE 8.0 mph12.9 kmh 30.21 in1023.0 mb 0.00 in0.0 mm 0.00 in0.0 mm 0.00 in0.0 mm
11:23 AM 57.0°F13.9°C 30.1°F-1.1°C 36% 2.5 mph SSW4.0 kmh SSW 6.3 mph10.1 kmh 30.21 in1023.0 mb 0.00 in0.0 mm 0.00 in0.0 mm 0.00 in0.0 mm
11:28 AM 57.2°F14.0°C 30.9°F-0.6°C 37% 2.2 mph NNW3.5 kmh NNW 6.3 mph10.1 kmh 30.21 in1023.0 mb 0.00 in0.0 mm 0.00 in0.0 mm 0.00 in0.0 mm
11:33 AM 57.2°F14.0°C 30.3°F-0.9°C 36% 1.3 mph W2.1 kmh W 8.8 mph14.2 kmh 30.21 in1023.0 mb 0.00 in0.0 mm 0.00 in0.0 mm 0.00 in0.0 mm
11:38 AM 58.2°F14.6°C 31.2°F-0.4°C 36% 1.6 mph NW2.6 kmh NW 8.8 mph14.2 kmh 30.21 in1023.0 mb 0.00 in0.0 mm 0.00 in0.0 mm 0.00 in0.0 mm
11:43 AM 58.7°F14.8°C 31.6°F-0.2°C 36% 2.8 mph NW4.5 kmh NW 7.0 mph11.3 kmh 30.21 in1023.0 mb 0.00 in0.0 mm 0.00 in0.0 mm 0.00 in0.0 mm
11:48 AM 58.8°F14.9°C 29.5°F-1.4°C 33% 2.7 mph NNW4.3 kmh NNW 8.8 mph14.2 kmh 30.21 in1023.0 mb 0.00 in0.0 mm 0.00 in0.0 mm 0.00 in0.0 mm
11:53 AM 59.1°F15.1°C 29.8°F-1.2°C 33% 4.3 mph N6.9 kmh N 8.8 mph14.2 kmh 30.21 in1023.0 mb 0.00 in0.0 mm 0.00 in0.0 mm 0.00 in0.0 mm
11:58 AM 59.4°F15.2°C 31.5°F-0.3°C 35% 1.4 mph WNW2.3 kmh WNW 7.5 mph12.1 kmh 30.21 in1023.0 mb 0.00 in0.0 mm 0.00 in0.0 mm 0.00 in0.0 mm
12:03 PM 59.4°F15.2°C 30.8°F-0.7°C 34% 2.4 mph NE3.9 kmh NE 7.0 mph11.3 kmh 30.21 in1023.0 mb 0.00 in0.0 mm 0.00 in0.0 mm 0.00 in0.0 mm
12:08 PM 59.6°F15.3°C 32.4°F0.2°C 36% 1.8 mph SSW2.9 kmh SSW 6.3 mph10.1 kmh 30.20 in1022.7 mb 0.00 in0.0 mm 0.00 in0.0 mm 0.00 in0.0 mm
12:13 PM 60.3°F15.7°C 32.5°F0.3°C 35% 1.8 mph SW2.9 kmh SW 5.0 mph8.0 kmh 30.20 in1022.7 mb 0.00 in0.0 mm 0.00 in0.0 mm 0.00 in0.0 mm
12:18 PM 60.6°F15.9°C 32.8°F0.4°C 35% 1.3 mph W2.1 kmh W 5.0 mph8.0 kmh 30.20 in1022.7 mb 0.00 in0.0 mm 0.00 in0.0 mm 0.00 in0.0 mm
12:23 PM 61.1°F16.2°C 31.6°F-0.2°C 33% 1.5 mph NNW2.4 kmh NNW 4.0 mph6.4 kmh 30.20 in1022.7 mb 0.00 in0.0 mm 0.00 in0.0 mm 0.00 in0.0 mm
12:28 PM 61.3°F16.3°C 28.6°F-1.9°C 29% 2.8 mph SW4.5 kmh SW 5.0 mph8.0 kmh 30.20 in1022.7 mb 0.00 in0.0 mm 0.00 in0.0 mm 0.00 in0.0 mm
12:33 PM 61.1°F16.2°C 33.7°F0.9°C 36% 1.9 mph S3.1 kmh S 6.3 mph10.1 kmh 30.20 in1022.7 mb 0.00 in0.0 mm 0.00 in0.0 mm 0.00 in0.0 mm
12:38 PM 61.7°F16.5°C 32.1°F0.1°C 33% 2.5 mph SSW4.0 kmh SSW 6.3 mph10.1 kmh 30.20 in1022.7 mb 0.00 in0.0 mm 0.00 in0.0 mm 0.00 in0.0 mm
12:43 PM 62.1°F16.7°C 31.7°F-0.2°C 32% 2.3 mph SW3.7 kmh SW 6.0 mph9.7 kmh 30.19 in1022.4 mb 0.00 in0.0 mm 0.00 in0.0 mm 0.00 in0.0 mm
12:48 PM 61.9°F16.6°C 29.9°F-1.2°C 30% 5.6 mph SE9.0 kmh SE 8.8 mph14.2 kmh 30.19 in1022.4 mb 0.00 in0.0 mm 0.00 in0.0 mm 0.00 in0.0 mm
12:53 PM 61.6°F16.4°C 29.6°F-1.3°C 30% 3.9 mph S6.3 kmh S 8.8 mph14.2 kmh 30.19 in1022.4 mb 0.00 in0.0 mm 0.00 in0.0 mm 0.00 in0.0 mm
12:58 PM 61.8°F16.6°C 29.2°F-1.6°C 29% 3.2 mph S5.1 kmh S 7.5 mph12.1 kmh 30.19 in1022.4 mb 0.00 in0.0 mm 0.00 in0.0 mm 0.00 in0.0 mm
01:03 PM 60.9°F16.1°C 29.0°F-1.7°C 30% 4.5 mph SSE7.2 kmh SSE 10.0 mph16.1 kmh 30.19 in1022.4 mb 0.00 in0.0 mm 0.00 in0.0 mm 0.00 in0.0 mm
01:08 PM 61.7°F16.5°C 30.5°F-0.8°C 31% 2.6 mph WSW4.2 kmh WSW 10.0 mph16.1 kmh 30.19 in1022.4 mb 0.00 in0.0 mm 0.00 in0.0 mm 0.00 in0.0 mm
01:13 PM 61.7°F16.5°C 30.5°F-0.8°C 31% 3.7 mph SSE6.0 kmh SSE 8.0 mph12.9 kmh 30.18 in1022.0 mb 0.00 in0.0 mm 0.00 in0.0 mm 0.00 in0.0 mm
01:18 PM 62.1°F16.7°C 32.4°F0.2°C 33% 1.4 mph S2.3 kmh S 8.0 mph12.9 kmh 30.18 in1022.0 mb 0.00 in0.0 mm 0.00 in0.0 mm 0.00 in0.0 mm
01:24 PM 62.7°F17.1°C 30.8°F-0.7°C 30% 2.1 mph SSW3.4 kmh SSW 7.0 mph11.3 kmh 30.18 in1022.0 mb 0.00 in0.0 mm 0.00 in0.0 mm 0.00 in0.0 mm
01:29 PM 63.2°F17.3°C 29.5°F-1.4°C 28% 1.7 mph WSW2.7 kmh WSW 7.0 mph11.3 kmh 30.18 in1022.0 mb 0.00 in0.0 mm 0.00 in0.0 mm 0.00 in0.0 mm
01:34 PM 63.0°F17.2°C 29.2°F-1.6°C 28% 1.7 mph W2.7 kmh W 5.0 mph8.0 kmh 30.18 in1022.0 mb 0.00 in0.0 mm 0.00 in0.0 mm 0.00 in0.0 mm
01:39 PM 63.4°F17.4°C 32.2°F0.1°C 31% 4.6 mph S7.4 kmh S 7.5 mph12.1 kmh 30.17 in1021.7 mb 0.00 in0.0 mm 0.00 in0.0 mm 0.00 in0.0 mm
01:44 PM 63.7°F17.6°C 30.6°F-0.8°C 29% 2.2 mph SW3.5 kmh SW 7.5 mph12.1 kmh 30.17 in1021.7 mb 0.00 in0.0 mm 0.00 in0.0 mm 0.00 in0.0 mm
01:49 PM 63.8°F17.7°C 30.7°F-0.7°C 29% 2.2 mph WSW3.5 kmh WSW 7.5 mph12.1 kmh 30.17 in1021.7 mb 0.00 in0.0 mm 0.00 in0.0 mm 0.00 in0.0 mm
01:55 PM 64.2°F17.9°C 29.3°F-1.5°C 27% 1.9 mph SE3.1 kmh SE 7.0 mph11.3 kmh 30.16 in1021.3 mb 0.00 in0.0 mm 0.00 in0.0 mm 0.00 in0.0 mm
02:00 PM 63.9°F17.7°C 29.1°F-1.6°C 27% 5.1 mph SSE8.2 kmh SSE 8.8 mph14.2 kmh 30.16 in1021.3 mb 0.00 in0.0 mm 0.00 in0.0 mm 0.00 in0.0 mm
02:05 PM 64.0°F17.8°C 32.5°F0.3°C 31% 1.7 mph SSW2.7 kmh SSW 8.8 mph14.2 kmh 30.16 in1021.3 mb 0.00 in0.0 mm 0.00 in0.0 mm 0.00 in0.0 mm
02:10 PM 64.3°F17.9°C 30.5°F-0.8°C 28% 1.9 mph WSW3.1 kmh WSW 7.0 mph11.3 kmh 30.16 in1021.3 mb 0.00 in0.0 mm 0.00 in0.0 mm 0.00 in0.0 mm
02:16 PM 64.8°F18.2°C 31.6°F-0.2°C 29% 3.2 mph S5.1 kmh S 7.0 mph11.3 kmh 30.16 in1021.3 mb 0.00 in0.0 mm 0.00 in0.0 mm 0.00 in0.0 mm
02:22 PM 64.9°F18.3°C 32.7°F0.4°C 30% 2.3 mph SW3.7 kmh SW 6.3 mph10.1 kmh 30.15 in1021.0 mb 0.00 in0.0 mm 0.00 in0.0 mm 0.00 in0.0 mm
02:27 PM 64.8°F18.2°C 33.2°F0.7°C 31% 2.9 mph S4.7 kmh S 6.0 mph9.7 kmh 30.15 in1021.0 mb 0.00 in0.0 mm 0.00 in0.0 mm 0.00 in0.0 mm
02:32 PM 65.4°F18.6°C 32.1°F0.1°C 29% 1.8 mph WSW2.9 kmh WSW 6.0 mph9.7 kmh 30.15 in1021.0 mb 0.00 in0.0 mm 0.00 in0.0 mm 0.00 in0.0 mm
02:37 PM 65.8°F18.8°C 31.6°F-0.2°C 28% 2.8 mph S4.5 kmh S 5.0 mph8.0 kmh 30.15 in1021.0 mb 0.00 in0.0 mm 0.00 in0.0 mm 0.00 in0.0 mm
02:42 PM 65.7°F18.7°C 31.5°F-0.3°C 28% 2.5 mph SW4.0 kmh SW 5.0 mph8.0 kmh 30.15 in1021.0 mb 0.00 in0.0 mm 0.00 in0.0 mm 0.00 in0.0 mm
02:47 PM 65.4°F18.6°C 33.0°F0.6°C 30% 2.7 mph SW4.3 kmh SW 5.0 mph8.0 kmh 30.15 in1021.0 mb 0.00 in0.0 mm 0.00 in0.0 mm 0.00 in0.0 mm
02:53 PM 66.0°F18.9°C 34.3°F1.3°C 31% 2.2 mph SW3.5 kmh SW 5.0 mph8.0 kmh 30.14 in1020.7 mb 0.00 in0.0 mm 0.00 in0.0 mm 0.00 in0.0 mm
02:58 PM 66.3°F19.1°C 36.1°F2.3°C 33% 2.8 mph S4.5 kmh S 5.0 mph8.0 kmh 30.14 in1020.7 mb 0.00 in0.0 mm 0.00 in0.0 mm 0.00 in0.0 mm
03:03 PM 65.9°F18.8°C 30.8°F-0.7°C 27% 3.4 mph S5.5 kmh S 7.5 mph12.1 kmh 30.14 in1020.7 mb 0.00 in0.0 mm 0.00 in0.0 mm 0.00 in0.0 mm
03:08 PM 66.2°F19.0°C 32.8°F0.4°C 29% 1.9 mph SSW3.1 kmh SSW 7.5 mph12.1 kmh 30.14 in1020.7 mb 0.00 in0.0 mm 0.00 in0.0 mm 0.00 in0.0 mm
03:13 PM 66.3°F19.1°C 32.9°F0.5°C 29% 3.5 mph S5.6 kmh S 6.3 mph10.1 kmh 30.13 in1020.3 mb 0.00 in0.0 mm 0.00 in0.0 mm 0.00 in0.0 mm
03:18 PM 66.3°F19.1°C 31.1°F-0.5°C 27% 2.9 mph S4.7 kmh S 6.3 mph10.1 kmh 30.13 in1020.3 mb 0.00 in0.0 mm 0.00 in0.0 mm 0.00 in0.0 mm
03:23 PM 66.3°F19.1°C 31.1°F-0.5°C 27% 1.8 mph WSW2.9 kmh WSW 5.0 mph8.0 kmh 30.13 in1020.3 mb 0.00 in0.0 mm 0.00 in0.0 mm 0.00 in0.0 mm
03:28 PM 66.7°F19.3°C 28.6°F-1.9°C 24% 2.5 mph SSW4.0 kmh SSW 5.0 mph8.0 kmh 30.13 in1020.3 mb 0.00 in0.0 mm 0.00 in0.0 mm 0.00 in0.0 mm
03:34 PM 66.7°F19.3°C 30.6°F-0.8°C 26% 2.4 mph SW3.9 kmh SW 5.0 mph8.0 kmh 30.13 in1020.3 mb 0.00 in0.0 mm 0.00 in0.0 mm 0.00 in0.0 mm
03:39 PM 67.0°F19.4°C 33.5°F0.8°C 29% 2.7 mph S4.3 kmh S 5.0 mph8.0 kmh 30.13 in1020.3 mb 0.00 in0.0 mm 0.00 in0.0 mm 0.00 in0.0 mm
03:44 PM 67.6°F19.8°C 30.4°F-0.9°C 25% 3.1 mph SSE5.0 kmh SSE 5.0 mph8.0 kmh 30.13 in1020.3 mb 0.00 in0.0 mm 0.00 in0.0 mm 0.00 in0.0 mm
03:49 PM 67.3°F19.6°C 31.1°F-0.5°C 26% 4.5 mph SSE7.2 kmh SSE 7.5 mph12.1 kmh 30.12 in1020.0 mb 0.00 in0.0 mm 0.00 in0.0 mm 0.00 in0.0 mm
03:54 PM 67.7°F19.8°C 33.2°F0.7°C 28% 2.4 mph SSW3.9 kmh SSW 7.5 mph12.1 kmh 30.12 in1020.0 mb 0.00 in0.0 mm 0.00 in0.0 mm 0.00 in0.0 mm
03:59 PM 67.9°F19.9°C 28.6°F-1.9°C 23% 3.3 mph SSE5.3 kmh SSE 7.5 mph12.1 kmh 30.12 in1020.0 mb 0.00 in0.0 mm 0.00 in0.0 mm 0.00 in0.0 mm
04:04 PM 68.1°F20.1°C 30.8°F-0.7°C 25% 2.4 mph S3.9 kmh S 6.3 mph10.1 kmh 30.11 in1019.6 mb 0.00 in0.0 mm 0.00 in0.0 mm 0.00 in0.0 mm
04:09 PM 68.1°F20.1°C 32.7°F0.4°C 27% 2.0 mph S3.2 kmh S 6.0 mph9.7 kmh 30.11 in1019.6 mb 0.00 in0.0 mm 0.00 in0.0 mm 0.00 in0.0 mm
04:15 PM 68.5°F20.3°C 31.1°F-0.5°C 25% 1.8 mph SSW2.9 kmh SSW 5.0 mph8.0 kmh 30.11 in1019.6 mb 0.00 in0.0 mm 0.00 in0.0 mm 0.00 in0.0 mm
04:20 PM 68.6°F20.3°C 30.3°F-0.9°C 24% 1.9 mph SSW3.1 kmh SSW 3.8 mph6.1 kmh 30.11 in1019.6 mb 0.00 in0.0 mm 0.00 in0.0 mm 0.00 in0.0 mm
04:25 PM 69.0°F20.6°C 29.6°F-1.3°C 23% 2.1 mph WSW3.4 kmh WSW 3.8 mph6.1 kmh 30.11 in1019.6 mb 0.00 in0.0 mm 0.00 in0.0 mm 0.00 in0.0 mm
04:31 PM 68.7°F20.4°C 31.3°F-0.4°C 25% 2.1 mph S3.4 kmh S 5.0 mph8.0 kmh 30.10 in1019.3 mb 0.00 in0.0 mm 0.00 in0.0 mm 0.00 in0.0 mm
04:36 PM 68.9°F20.5°C 29.5°F-1.4°C 23% 1.7 mph SW2.7 kmh SW 7.5 mph12.1 kmh 30.10 in1019.3 mb 0.00 in0.0 mm 0.00 in0.0 mm 0.00 in0.0 mm
04:41 PM 68.8°F20.4°C 29.5°F-1.4°C 23% 2.7 mph SSW4.3 kmh SSW 7.5 mph12.1 kmh 30.10 in1019.3 mb 0.00 in0.0 mm 0.00 in0.0 mm 0.00 in0.0 mm
04:47 PM 68.8°F20.4°C 28.3°F-2.1°C 22% 2.0 mph SSW3.2 kmh SSW 7.0 mph11.3 kmh 30.09 in1019.0 mb 0.00 in0.0 mm 0.00 in0.0 mm 0.00 in0.0 mm
04:52 PM 68.8°F20.4°C 27.2°F-2.7°C 21% 3.0 mph S4.8 kmh S 6.3 mph10.1 kmh 30.09 in1019.0 mb 0.00 in0.0 mm 0.00 in0.0 mm 0.00 in0.0 mm
04:57 PM 68.7°F20.4°C 32.4°F0.2°C 26% 2.4 mph S3.9 kmh S 6.3 mph10.1 kmh 30.09 in1019.0 mb 0.00 in0.0 mm 0.00 in0.0 mm 0.00 in0.0 mm
05:02 PM 68.9°F20.5°C 30.6°F-0.8°C 24% 1.3 mph WSW2.1 kmh WSW 6.3 mph10.1 kmh 30.09 in1019.0 mb 0.00 in0.0 mm 0.00 in0.0 mm 0.00 in0.0 mm
05:07 PM 68.9°F20.5°C 27.3°F-2.6°C 21% 2.9 mph SW4.7 kmh SW 6.0 mph9.7 kmh 30.09 in1019.0 mb 0.00 in0.0 mm 0.00 in0.0 mm 0.00 in0.0 mm
05:12 PM 68.8°F20.4°C 30.4°F-0.9°C 24% 2.5 mph SSW4.0 kmh SSW 6.0 mph9.7 kmh 30.08 in1018.6 mb 0.00 in0.0 mm 0.00 in0.0 mm 0.00 in0.0 mm
05:17 PM 68.8°F20.4°C 32.5°F0.3°C 26% 2.7 mph SSE4.3 kmh SSE 5.0 mph8.0 kmh 30.08 in1018.6 mb 0.00 in0.0 mm 0.00 in0.0 mm 0.00 in0.0 mm
05:22 PM 69.3°F20.7°C 27.7°F-2.4°C 21% 2.8 mph S4.5 kmh S 5.0 mph8.0 kmh 30.08 in1018.6 mb 0.00 in0.0 mm 0.00 in0.0 mm 0.00 in0.0 mm
05:28 PM 69.1°F20.6°C 29.6°F-1.3°C 23% 1.6 mph SSE2.6 kmh SSE 4.0 mph6.4 kmh 30.08 in1018.6 mb 0.00 in0.0 mm 0.00 in0.0 mm 0.00 in0.0 mm
05:33 PM 69.2°F20.7°C 27.6°F-2.4°C 21% 3.6 mph S5.8 kmh S 6.3 mph10.1 kmh 30.08 in1018.6 mb 0.00 in0.0 mm 0.00 in0.0 mm 0.00 in0.0 mm
05:38 PM 69.3°F20.7°C 28.7°F-1.8°C 22% 3.3 mph SSE5.3 kmh SSE 6.3 mph10.1 kmh 30.08 in1018.6 mb 0.00 in0.0 mm 0.00 in0.0 mm 0.00 in0.0 mm
05:43 PM 69.0°F20.6°C 28.5°F-1.9°C 22% 2.4 mph SSE3.9 kmh SSE 5.0 mph8.0 kmh 30.08 in1018.6 mb 0.00 in0.0 mm 0.00 in0.0 mm 0.00 in0.0 mm
05:48 PM 68.7°F20.4°C 30.3°F-0.9°C 24% 2.5 mph S4.0 kmh S 5.0 mph8.0 kmh 30.08 in1018.6 mb 0.00 in0.0 mm 0.00 in0.0 mm 0.00 in0.0 mm
05:53 PM 68.7°F20.4°C 29.4°F-1.4°C 23% 2.0 mph S3.2 kmh S 5.0 mph8.0 kmh 30.08 in1018.6 mb 0.00 in0.0 mm 0.00 in0.0 mm 0.00 in0.0 mm
05:58 PM 68.9°F20.5°C 28.4°F-2.0°C 22% 3.8 mph SE6.1 kmh SE 5.0 mph8.0 kmh 30.08 in1018.6 mb 0.00 in0.0 mm 0.00 in0.0 mm 0.00 in0.0 mm
06:03 PM 68.2°F20.1°C 26.7°F-2.9°C 21% 4.1 mph SSE6.6 kmh SSE 6.3 mph10.1 kmh 30.07 in1018.3 mb 0.00 in0.0 mm 0.00 in0.0 mm 0.00 in0.0 mm
06:08 PM 68.0°F20.0°C 26.6°F-3.0°C 21% 1.3 mph WSW2.1 kmh WSW 6.3 mph10.1 kmh 30.07 in1018.3 mb 0.00 in0.0 mm 0.00 in0.0 mm 0.00 in0.0 mm
06:13 PM 67.9°F19.9°C 28.6°F-1.9°C 23% 1.3 mph WSW2.1 kmh WSW 5.0 mph8.0 kmh 30.07 in1018.3 mb 0.00 in0.0 mm 0.00 in0.0 mm 0.00 in0.0 mm
06:18 PM 67.9°F19.9°C 26.4°F-3.1°C 21% 1.6 mph SW2.6 kmh SW 5.0 mph8.0 kmh 30.07 in1018.3 mb 0.00 in0.0 mm 0.00 in0.0 mm 0.00 in0.0 mm
06:23 PM 68.1°F20.1°C 28.8°F-1.8°C 23% 1.6 mph SSW2.6 kmh SSW 4.0 mph6.4 kmh 30.07 in1018.3 mb 0.00 in0.0 mm 0.00 in0.0 mm 0.00 in0.0 mm
06:28 PM 68.0°F20.0°C 26.6°F-3.0°C 21% 2.1 mph S3.4 kmh S 3.8 mph6.1 kmh 30.07 in1018.3 mb 0.00 in0.0 mm 0.00 in0.0 mm 0.00 in0.0 mm
06:33 PM 67.9°F19.9°C 26.4°F-3.1°C 21% 1.3 mph SSW2.1 kmh SSW 3.8 mph6.1 kmh 30.07 in1018.3 mb 0.00 in0.0 mm 0.00 in0.0 mm 0.00 in0.0 mm
06:38 PM 68.3°F20.2°C 29.0°F-1.7°C 23% 1.4 mph SSE2.3 kmh SSE 3.8 mph6.1 kmh 30.06 in1017.9 mb 0.00 in0.0 mm 0.00 in0.0 mm 0.00 in0.0 mm
06:43 PM 68.2°F20.1°C 29.0°F-1.7°C 23% 3.8 mph SSW6.1 kmh SSW 7.5 mph12.1 kmh 30.06 in1017.9 mb 0.00 in0.0 mm 0.00 in0.0 mm 0.00 in0.0 mm
06:48 PM 67.8°F19.9°C 28.5°F-1.9°C 23% 1.9 mph W3.1 kmh W 7.5 mph12.1 kmh 30.07 in1018.3 mb 0.00 in0.0 mm 0.00 in0.0 mm 0.00 in0.0 mm
06:53 PM 67.8°F19.9°C 30.7°F-0.7°C 25% 2.1 mph SSE3.4 kmh SSE 6.0 mph9.7 kmh 30.07 in1018.3 mb 0.00 in0.0 mm 0.00 in0.0 mm 0.00 in0.0 mm
06:58 PM 67.7°F19.8°C 29.5°F-1.4°C 24% 1.3 mph SE2.1 kmh SE 6.0 mph9.7 kmh 30.07 in1018.3 mb 0.00 in0.0 mm 0.00 in0.0 mm 0.00 in0.0 mm
07:03 PM 67.3°F19.6°C 29.1°F-1.6°C 24% Calm Calm 4.0 mph6.4 kmh 30.07 in1018.3 mb 0.00 in0.0 mm 0.00 in0.0 mm 0.00 in0.0 mm
07:08 PM 67.0°F19.4°C 29.9°F-1.2°C 25% Calm Calm 3.0 mph4.8 kmh 30.07 in1018.3 mb 0.00 in0.0 mm 0.00 in0.0 mm 0.00 in0.0 mm
07:13 PM 66.8°F19.3°C 30.7°F-0.7°C 26% Calm Calm 2.0 mph3.2 kmh 30.07 in1018.3 mb 0.00 in0.0 mm 0.00 in0.0 mm 0.00 in0.0 mm
07:18 PM 66.4°F19.1°C 30.3°F-0.9°C 26% Calm Calm 1.0 mph1.6 kmh 30.07 in1018.3 mb 0.00 in0.0 mm 0.00 in0.0 mm 0.00 in0.0 mm
07:23 PM 66.0°F18.9°C 29.0°F-1.7°C 25% Calm Calm 1.3 mph2.1 kmh 30.07 in1018.3 mb 0.00 in0.0 mm 0.00 in0.0 mm 0.00 in0.0 mm
07:28 PM 65.4°F18.6°C 35.3°F1.8°C 33% Calm Calm 1.3 mph2.1 kmh 30.07 in1018.3 mb 0.00 in0.0 mm 0.00 in0.0 mm 0.00 in0.0 mm
07:33 PM 64.3°F17.9°C 33.6°F0.9°C 32% Calm Calm 1.0 mph1.6 kmh 30.07 in1018.3 mb 0.00 in0.0 mm 0.00 in0.0 mm 0.00 in0.0 mm
07:38 PM 63.3°F17.4°C 35.0°F1.7°C 35% Calm Calm 1.0 mph1.6 kmh 30.07 in1018.3 mb 0.00 in0.0 mm 0.00 in0.0 mm 0.00 in0.0 mm
07:43 PM 62.0°F16.7°C 34.7°F1.5°C 36% Calm Calm -- 30.07 in1018.3 mb 0.00 in0.0 mm 0.00 in0.0 mm 0.00 in0.0 mm
07:48 PM 61.1°F16.2°C 35.9°F2.2°C 39% Calm Calm -- 30.07 in1018.3 mb 0.00 in0.0 mm 0.00 in0.0 mm 0.00 in0.0 mm
07:53 PM 60.2°F15.7°C 35.6°F2.0°C 40% 1.3 mph SE2.1 kmh SE 1.3 mph2.1 kmh 30.07 in1018.3 mb 0.00 in0.0 mm 0.00 in0.0 mm 0.00 in0.0 mm
07:58 PM 59.4°F15.2°C 36.2°F2.3°C 42% 1.3 mph SE2.1 kmh SE 1.3 mph2.1 kmh 30.07 in1018.3 mb 0.00 in0.0 mm 0.00 in0.0 mm 0.00 in0.0 mm
08:03 PM 58.6°F14.8°C 35.4°F1.9°C 42% 1.3 mph SE2.1 kmh SE 1.3 mph2.1 kmh 30.07 in1018.3 mb 0.00 in0.0 mm 0.00 in0.0 mm 0.00 in0.0 mm
08:08 PM 57.9°F14.4°C 36.0°F2.2°C 44% 1.3 mph SE2.1 kmh SE 1.3 mph2.1 kmh 30.07 in1018.3 mb 0.00 in0.0 mm 0.00 in0.0 mm 0.00 in0.0 mm
08:13 PM 57.2°F14.0°C 36.5°F2.5°C 46% 1.3 mph SE2.1 kmh SE 1.3 mph2.1 kmh 30.07 in1018.3 mb 0.00 in0.0 mm 0.00 in0.0 mm 0.00 in0.0 mm
08:18 PM 56.3°F13.5°C 36.3°F2.4°C 47% Calm Calm 1.3 mph2.1 kmh 30.07 in1018.3 mb 0.00 in0.0 mm 0.00 in0.0 mm 0.00 in0.0 mm
08:23 PM 55.4°F13.0°C 36.5°F2.5°C 49% Calm Calm 1.3 mph2.1 kmh 30.07 in1018.3 mb 0.00 in0.0 mm 0.00 in0.0 mm 0.00 in0.0 mm
08:28 PM 54.8°F12.7°C 36.0°F2.2°C 49% Calm Calm 1.3 mph2.1 kmh 30.07 in1018.3 mb 0.00 in0.0 mm 0.00 in0.0 mm 0.00 in0.0 mm
08:33 PM 54.5°F12.5°C 35.2°F1.8°C 48% Calm Calm 1.0 mph1.6 kmh 30.07 in1018.3 mb 0.00 in0.0 mm 0.00 in0.0 mm 0.00 in0.0 mm
08:38 PM 54.1°F12.3°C 35.3°F1.8°C 49% 1.3 mph ESE2.1 kmh ESE 1.3 mph2.1 kmh 30.07 in1018.3 mb 0.00 in0.0 mm 0.00 in0.0 mm 0.00 in0.0 mm
08:43 PM 53.7°F12.1°C 35.0°F1.7°C 49% Calm Calm 1.3 mph2.1 kmh 30.08 in1018.6 mb 0.00 in0.0 mm 0.00 in0.0 mm 0.00 in0.0 mm
08:49 PM 53.2°F11.8°C 35.5°F1.9°C 51% Calm Calm 1.3 mph2.1 kmh 30.08 in1018.6 mb 0.00 in0.0 mm 0.00 in0.0 mm 0.00 in0.0 mm
08:54 PM 52.9°F11.6°C 36.3°F2.4°C 53% Calm Calm 1.3 mph2.1 kmh 30.08 in1018.6 mb 0.00 in0.0 mm 0.00 in0.0 mm 0.00 in0.0 mm
08:59 PM 52.7°F11.5°C 35.6°F2.0°C 52% 1.3 mph ESE2.1 kmh ESE 1.3 mph2.1 kmh 30.08 in1018.6 mb 0.00 in0.0 mm 0.00 in0.0 mm 0.00 in0.0 mm
09:04 PM 52.7°F11.5°C 36.6°F2.6°C 54% 1.3 mph ESE2.1 kmh ESE 1.3 mph2.1 kmh 30.09 in1019.0 mb 0.00 in0.0 mm 0.00 in0.0 mm 0.00 in0.0 mm
09:09 PM 52.2°F11.2°C 35.6°F2.0°C 53% Calm Calm 1.3 mph2.1 kmh 30.09 in1019.0 mb 0.00 in0.0 mm 0.00 in0.0 mm 0.00 in0.0 mm
09:14 PM 52.1°F11.2°C 35.9°F2.2°C 54% 1.3 mph ESE2.1 kmh ESE 1.3 mph2.1 kmh 30.09 in1019.0 mb 0.00 in0.0 mm 0.00 in0.0 mm 0.00 in0.0 mm
09:19 PM 52.0°F11.1°C 36.3°F2.4°C 55% 1.3 mph E2.1 kmh E 1.3 mph2.1 kmh 30.09 in1019.0 mb 0.00 in0.0 mm 0.00 in0.0 mm 0.00 in0.0 mm
09:24 PM 51.8°F11.0°C 35.7°F2.1°C 54% 1.3 mph E2.1 kmh E 1.3 mph2.1 kmh 30.10 in1019.3 mb 0.00 in0.0 mm 0.00 in0.0 mm 0.00 in0.0 mm
09:29 PM 51.5°F10.8°C 35.4°F1.9°C 54% Calm Calm 1.3 mph2.1 kmh 30.10 in1019.3 mb 0.00 in0.0 mm 0.00 in0.0 mm 0.00 in0.0 mm
09:34 PM 51.1°F10.6°C 36.0°F2.2°C 56% 1.3 mph E2.1 kmh E 1.3 mph2.1 kmh 30.10 in1019.3 mb 0.00 in0.0 mm 0.00 in0.0 mm 0.00 in0.0 mm
09:39 PM 50.8°F10.4°C 36.1°F2.3°C 57% 1.3 mph E2.1 kmh E 1.3 mph2.1 kmh 30.10 in1019.3 mb 0.00 in0.0 mm 0.00 in0.0 mm 0.00 in0.0 mm
09:44 PM 50.6°F10.3°C 36.0°F2.2°C 57% 1.3 mph E2.1 kmh E 1.3 mph2.1 kmh 30.10 in1019.3 mb 0.00 in0.0 mm 0.00 in0.0 mm 0.00 in0.0 mm
09:49 PM 50.4°F10.2°C 35.8°F2.1°C 57% 1.3 mph E2.1 kmh E 1.3 mph2.1 kmh 30.10 in1019.3 mb 0.00 in0.0 mm 0.00 in0.0 mm 0.00 in0.0 mm
09:54 PM 50.2°F10.1°C 36.1°F2.3°C 58% 1.3 mph E2.1 kmh E 1.3 mph2.1 kmh 30.10 in1019.3 mb 0.00 in0.0 mm 0.00 in0.0 mm 0.00 in0.0 mm
09:59 PM 50.0°F10.0°C 35.9°F2.2°C 58% 1.3 mph E2.1 kmh E 1.3 mph2.1 kmh 30.10 in1019.3 mb 0.00 in0.0 mm 0.00 in0.0 mm 0.00 in0.0 mm
10:04 PM 49.6°F9.8°C 35.9°F2.2°C 59% 1.3 mph E2.1 kmh E 1.3 mph2.1 kmh 30.10 in1019.3 mb 0.00 in0.0 mm 0.00 in0.0 mm 0.00 in0.0 mm
10:09 PM 49.0°F9.4°C 36.6°F2.6°C 62% 1.3 mph E2.1 kmh E 1.3 mph2.1 kmh 30.10 in1019.3 mb 0.00 in0.0 mm 0.00 in0.0 mm 0.00 in0.0 mm
10:14 PM 48.7°F9.3°C 35.9°F2.2°C 61% 1.3 mph E2.1 kmh E 1.3 mph2.1 kmh 30.11 in1019.6 mb 0.00 in0.0 mm 0.00 in0.0 mm 0.00 in0.0 mm
10:19 PM 48.5°F9.2°C 36.6°F2.6°C 63% Calm Calm 1.3 mph2.1 kmh 30.11 in1019.6 mb 0.00 in0.0 mm 0.00 in0.0 mm 0.00 in0.0 mm
10:24 PM 48.4°F9.1°C 36.1°F2.3°C 62% 1.5 mph E2.4 kmh E 2.5 mph4.0 kmh 30.11 in1019.6 mb 0.00 in0.0 mm 0.00 in0.0 mm 0.00 in0.0 mm
10:29 PM 48.1°F8.9°C 37.0°F2.8°C 65% 1.3 mph ENE2.1 kmh ENE 2.5 mph4.0 kmh 30.11 in1019.6 mb 0.00 in0.0 mm 0.00 in0.0 mm 0.00 in0.0 mm
10:34 PM 47.7°F8.7°C 36.6°F2.6°C 65% Calm Calm 2.5 mph4.0 kmh 30.11 in1019.6 mb 0.00 in0.0 mm 0.00 in0.0 mm 0.00 in0.0 mm
10:39 PM 47.1°F8.4°C 37.2°F2.9°C 68% Calm Calm 1.3 mph2.1 kmh 30.11 in1019.6 mb 0.00 in0.0 mm 0.00 in0.0 mm 0.00 in0.0 mm
10:44 PM 46.8°F8.2°C 37.6°F3.1°C 70% 1.3 mph ENE2.1 kmh ENE 1.3 mph2.1 kmh 30.11 in1019.6 mb 0.00 in0.0 mm 0.00 in0.0 mm 0.00 in0.0 mm
10:49 PM 46.7°F8.2°C 37.5°F3.1°C 70% 1.3 mph ENE2.1 kmh ENE 1.3 mph2.1 kmh 30.11 in1019.6 mb 0.00 in0.0 mm 0.00 in0.0 mm 0.00 in0.0 mm
10:54 PM 46.8°F8.2°C 37.3°F2.9°C 69% 1.3 mph ENE2.1 kmh ENE 1.3 mph2.1 kmh 30.11 in1019.6 mb 0.00 in0.0 mm 0.00 in0.0 mm 0.00 in0.0 mm
10:59 PM 46.4°F8.0°C 36.5°F2.5°C 68% Calm Calm 1.3 mph2.1 kmh 30.12 in1020.0 mb 0.00 in0.0 mm 0.00 in0.0 mm 0.00 in0.0 mm
11:04 PM 46.1°F7.8°C 35.5°F1.9°C 66% Calm Calm 1.3 mph2.1 kmh 30.12 in1020.0 mb 0.00 in0.0 mm 0.00 in0.0 mm 0.00 in0.0 mm
11:09 PM 46.0°F7.8°C 36.9°F2.7°C 70% 1.3 mph ENE2.1 kmh ENE 1.3 mph2.1 kmh 30.12 in1020.0 mb 0.00 in0.0 mm 0.00 in0.0 mm 0.00 in0.0 mm
11:14 PM 45.7°F7.6°C 35.5°F1.9°C 67% Calm Calm 1.3 mph2.1 kmh 30.12 in1020.0 mb 0.00 in0.0 mm 0.00 in0.0 mm 0.00 in0.0 mm
11:19 PM 45.7°F7.6°C 37.6°F3.1°C 73% 1.3 mph ENE2.1 kmh ENE 1.3 mph2.1 kmh 30.12 in1020.0 mb 0.00 in0.0 mm 0.00 in0.0 mm 0.00 in0.0 mm
11:24 PM 45.6°F7.6°C 37.5°F3.1°C 73% 1.3 mph ENE2.1 kmh ENE 1.3 mph2.1 kmh 30.12 in1020.0 mb 0.00 in0.0 mm 0.00 in0.0 mm 0.00 in0.0 mm
11:29 PM 45.7°F7.6°C 36.6°F2.6°C 70% Calm Calm 1.3 mph2.1 kmh 30.12 in1020.0 mb 0.00 in0.0 mm 0.00 in0.0 mm 0.00 in0.0 mm
11:34 PM 45.4°F7.4°C 37.0°F2.8°C 72% Calm Calm 1.3 mph2.1 kmh 30.12 in1020.0 mb 0.00 in0.0 mm 0.00 in0.0 mm 0.00 in0.0 mm
11:39 PM 44.9°F7.2°C 36.1°F2.3°C 71% Calm Calm 1.0 mph1.6 kmh 30.12 in1020.0 mb 0.00 in0.0 mm 0.00 in0.0 mm 0.00 in0.0 mm
11:44 PM 44.7°F7.1°C 36.6°F2.6°C 73% Calm Calm -- 30.12 in1020.0 mb 0.00 in0.0 mm 0.00 in0.0 mm 0.00 in0.0 mm
11:49 PM 44.7°F7.1°C 36.9°F2.7°C 74% Calm Calm -- 30.11 in1019.6 mb 0.00 in0.0 mm 0.00 in0.0 mm 0.00 in0.0 mm
11:54 PM 44.7°F7.1°C 36.9°F2.7°C 74% Calm Calm -- 30.11 in1019.6 mb 0.00 in0.0 mm 0.00 in0.0 mm 0.00 in0.0 mm
11:59 PM 44.5°F6.9°C 36.7°F2.6°C 74% Calm Calm -- 30.11 in1019.6 mb 0.00 in0.0 mm 0.00 in0.0 mm 0.00 in0.0 mm